Time;durP1;ratioP1;P1;durP2;ratioP2;P2;SDS_P1;SDS_P2;PMS_P1;PMS_P2;Temp;Humidity;BMP_temperature;BMP_pressure;BME280_temperature;BME280_humidity;BME280_pressure;Samples;Min_cycle;Max_cycle;Signal;HPM_P1;HPM_P2
2023/06/21 00:02:04;;;;;;;;;;;;;;;19.81;53.99;100579.66;5033783;28;3946;-78
2023/06/21 00:04:56;;;;;;;;;;;;;;;19.81;53.81;100578.84;5038247;28;3914;-76
2023/06/21 00:07:47;;;;;;;;;;;;;;;19.79;53.67;100576.41;5034899;28;4099;-78
2023/06/21 00:10:39;;;;;;;;;;;;;;;19.79;54.03;100573.66;5038742;28;4070;-76
2023/06/21 00:13:32;;;;;;;;;;;;;;;19.78;54.00;100572.03;5037156;28;3895;-76
2023/06/21 00:16:23;;;;;;;;;;;;;;;19.77;54.06;100573.16;5037475;28;3969;-75
2023/06/21 00:19:15;;;;;;;;;;;;;;;19.77;53.98;100569.59;5039174;28;4437;-76
2023/06/21 00:22:07;;;;;;;;;;;;;;;19.34;53.63;100492.72;5035328;28;3962;-76
2023/06/21 00:24:59;;;;;;;;;;;;;;;19.76;53.87;100573.41;5036447;28;3915;-76
2023/06/21 00:27:51;;;;;;;;;;;;;;;19.74;53.67;100574.53;5036333;28;3986;-77
2023/06/21 00:30:44;;;;;;;;;;;;;;;19.74;53.96;100581.91;5026116;28;4025;-77
2023/06/21 00:33:35;;;;;;;;;;;;;;;19.72;53.95;100584.91;5025199;28;3760;-77
2023/06/21 00:36:27;;;;;;;;;;;;;;;19.72;53.71;100579.44;5016924;28;3716;-77
2023/06/21 00:39:20;;;;;;;;;;;;;;;19.70;53.78;100578.06;5033448;28;4078;-76
2023/06/21 00:42:11;;;;;;;;;;;;;;;19.70;53.75;100567.97;5029886;28;3926;-78
2023/06/21 00:45:03;;;;;;;;;;;;;;;19.72;53.79;100567.69;5038829;28;3931;-76
2023/06/21 00:47:57;;;;;;;;;;;;;;;19.70;53.75;100569.88;5039223;28;3975;-75
2023/06/21 00:50:48;;;;;;;;;;;;;;;19.67;53.69;100567.72;5052660;28;4009;-78
2023/06/21 00:53:40;;;;;;;;;;;;;;;19.65;53.73;100559.81;5055361;28;3871;-77
2023/06/21 00:56:33;;;;;;;;;;;;;;;19.66;53.65;100552.44;5057190;28;3920;-77
2023/06/21 00:59:27;;;;;;;;;;;;;;;19.65;53.58;100551.63;5058280;28;4006;-76
2023/06/21 01:02:18;;;;;;;;;;;;;;;19.65;53.49;100554.34;5055972;28;3986;-75
2023/06/21 01:05:10;;;;;;;;;;;;;;;19.64;53.52;100544.47;5056413;28;3828;-76
2023/06/21 01:08:05;;;;;;;;;;;;;;;19.63;53.49;100533.84;5057360;28;4131;-75
2023/06/21 01:10:56;;;;;;;;;;;;;;;19.62;53.66;100540.38;5058054;28;3959;-76
2023/06/21 01:13:48;;;;;;;;;;;;;;;19.61;53.79;100550.50;5059148;28;3968;-75
2023/06/21 01:16:40;;;;;;;;;;;;;;;19.60;53.61;100537.94;5060212;28;3956;-75
2023/06/21 01:19:31;;;;;;;;;;;;;;;19.59;53.95;100540.94;5058589;28;3991;-78
2023/06/21 01:22:22;;;;;;;;;;;;;;;19.58;53.51;100540.13;5059149;28;4158;-79
2023/06/21 01:25:14;;;;;;;;;;;;;;;19.57;53.64;100533.03;5059503;28;3819;-76
2023/06/21 01:28:06;;;;;;;;;;;;;;;19.57;53.55;100540.41;5059716;28;3921;-77
2023/06/21 01:30:58;;;;;;;;;;;;;;;19.57;53.48;100534.97;5059039;28;3988;-76
2023/06/21 01:33:50;;;;;;;;;;;;;;;19.56;53.41;100527.84;5059773;28;3994;-78
2023/06/21 01:36:42;;;;;;;;;;;;;;;19.54;53.80;100528.13;5060549;28;3715;-77
2023/06/21 01:39:34;;;;;;;;;;;;;;;19.53;53.51;100529.25;5056071;28;4113;-77
2023/06/21 01:42:26;;;;;;;;;;;;;;;19.51;53.40;100521.31;5057871;28;3869;-76
2023/06/21 01:45:21;;;;;;;;;;;;;;;19.51;53.46;100518.59;5057570;28;3958;-76
2023/06/21 01:48:13;;;;;;;;;;;;;;;19.51;53.68;100524.03;5059985;28;4099;-75
2023/06/21 01:51:05;;;;;;;;;;;;;;;19.50;53.35;100524.31;5058238;28;3891;-76
2023/06/21 01:53:57;;;;;;;;;;;;;;;19.49;53.57;100518.03;5056195;28;3919;-77
2023/06/21 01:56:49;;;;;;;;;;;;;;;19.56;53.26;100520.50;5057553;28;4007;-77
2023/06/21 01:59:41;;;;;;;;;;;;;;;19.62;52.95;100511.16;5056123;28;4019;-77
2023/06/21 02:02:33;;;;;;;;;;;;;;;19.53;53.18;100515.59;5056456;28;4021;-77
2023/06/21 02:05:24;;;;;;;;;;;;;;;19.55;53.09;100509.81;5056407;28;3966;-77
2023/06/21 02:08:17;;;;;;;;;;;;;;;19.52;53.21;100505.75;5054395;28;4057;-76
2023/06/21 02:11:08;;;;;;;;;;;;;;;19.52;53.17;100506.56;5055209;28;3939;-78
2023/06/21 02:14:00;;;;;;;;;;;;;;;19.62;52.69;100507.59;5057425;28;3896;-77
2023/06/21 02:16:52;;;;;;;;;;;;;;;19.85;52.30;100508.88;5055544;28;4170;-77
2023/06/21 02:19:44;;;;;;;;;;;;;;;19.63;52.86;100495.59;5057386;28;3995;-76
2023/06/21 02:22:36;;;;;;;;;;;;;;;19.84;52.25;100493.59;5055561;28;3927;-76
2023/06/21 02:25:28;;;;;;;;;;;;;;;20.01;51.75;100494.03;5059880;28;3947;-75
2023/06/21 02:28:21;;;;;;;;;;;;;;;19.63;52.66;100495.59;5058740;28;3848;-78
2023/06/21 02:31:12;;;;;;;;;;;;;;;19.69;52.45;100499.97;5058486;28;4047;-76
2023/06/21 02:34:04;;;;;;;;;;;;;;;19.68;52.63;100501.06;5059873;28;3979;-75
2023/06/21 02:36:56;;;;;;;;;;;;;;;19.84;52.18;100497.13;5059621;28;4008;-77
2023/06/21 02:39:48;;;;;;;;;;;;;;;19.91;51.53;100496.81;5057551;28;3904;-77
2023/06/21 02:42:40;;;;;;;;;;;;;;;20.04;51.50;100489.91;5057169;28;3990;-76
2023/06/21 02:45:32;;;;;;;;;;;;;;;20.11;51.14;100490.38;5057770;28;3766;-76
2023/06/21 02:48:24;;;;;;;;;;;;;;;20.15;50.76;100492.28;5045143;28;4071;-76
2023/06/21 02:51:16;;;;;;;;;;;;;;;19.95;51.61;100486.97;5049972;28;3923;-76
2023/06/21 02:54:08;;;;;;;;;;;;;;;19.78;51.89;100494.72;5043379;28;3756;-77
2023/06/21 02:57:00;;;;;;;;;;;;;;;19.78;51.72;100484.59;5041926;28;3915;-78
2023/06/21 02:59:53;;;;;;;;;;;;;;;19.96;51.23;100494.84;5045198;28;3703;-77
2023/06/21 03:02:44;;;;;;;;;;;;;;;20.07;51.35;100501.09;5053661;28;3634;-76
2023/06/21 03:05:37;;;;;;;;;;;;;;;20.02;50.95;100501.09;5045658;28;3659;-78
2023/06/21 03:08:28;;;;;;;;;;;;;;;20.18;50.69;100501.84;5045098;28;3663;-76
2023/06/21 03:11:19;;;;;;;;;;;;;;;20.09;50.92;100506.25;5045123;28;3702;-77
2023/06/21 03:14:11;;;;;;;;;;;;;;;20.07;51.04;100497.53;5042993;28;3932;-78
2023/06/21 03:17:04;;;;;;;;;;;;;;;20.15;50.58;100503.22;5053947;28;3965;-77
2023/06/21 03:19:55;;;;;;;;;;;;;;;20.25;50.17;100502.31;5056371;28;3883;-78
2023/06/21 03:22:48;;;;;;;;;;;;;;;20.19;50.63;100487.06;5053522;28;3516;-75
2023/06/21 03:25:41;;;;;;;;;;;;;;;20.14;50.65;100476.16;5046831;28;3993;-76
2023/06/21 03:28:34;;;;;;;;;;;;;;;20.20;50.28;100469.53;5046275;28;3921;-77
2023/06/21 03:31:26;;;;;;;;;;;;;;;20.07;50.83;100467.47;5046001;28;3828;-77
2023/06/21 03:34:18;;;;;;;;;;;;;;;20.20;50.10;100464.06;5045205;28;3853;-75
2023/06/21 03:37:10;;;;;;;;;;;;;;;20.16;50.36;100457.53;5049065;28;3587;-76
2023/06/21 03:40:03;;;;;;;;;;;;;;;19.81;50.28;100387.59;5045076;28;3886;-75
2023/06/21 03:42:54;;;;;;;;;;;;;;;19.81;50.11;100399.31;5046206;28;3851;-79
2023/06/21 03:45:46;;;;;;;;;;;;;;;19.89;51.03;100453.38;5043539;28;3837;-76
2023/06/21 03:48:38;;;;;;;;;;;;;;;20.17;50.31;100449.03;5046162;28;4009;-74
2023/06/21 03:51:31;;;;;;;;;;;;;;;20.14;50.27;100448.81;5044748;28;3868;-76
2023/06/21 03:54:22;;;;;;;;;;;;;;;19.96;50.58;100453.84;5048163;28;3840;-77
2023/06/21 03:57:15;;;;;;;;;;;;;;;19.93;51.04;100448.16;5046962;28;3858;-78
2023/06/21 04:00:08;;;;;;;;;;;;;;;20.13;50.45;100449.91;5045630;28;3652;-76
2023/06/21 04:03:01;;;;;;;;;;;;;;;20.01;50.64;100442.09;5049570;28;3800;-77
2023/06/21 04:05:53;;;;;;;;;;;;;;;19.99;50.52;100440.72;5043235;28;3903;-76
2023/06/21 04:08:45;;;;;;;;;;;;;;;19.96;50.74;100437.47;5048634;28;4015;-75
2023/06/21 04:11:36;;;;;;;;;;;;;;;20.12;50.03;100434.63;5048410;28;3613;-75
2023/06/21 04:14:28;;;;;;;;;;;;;;;19.83;51.02;100426.38;5043037;28;3823;-77
2023/06/21 04:17:20;;;;;;;;;;;;;;;20.13;49.97;100437.06;5042065;28;3936;-77
2023/06/21 04:20:14;;;;;;;;;;;;;;;19.90;50.71;100426.84;5041421;28;3862;-77
2023/06/21 04:23:06;;;;;;;;;;;;;;;19.93;50.69;100429.84;5045428;28;3916;-76
2023/06/21 04:25:58;;;;;;;;;;;;;;;19.95;50.72;100429.56;5046717;28;3913;-75
2023/06/21 04:28:50;;;;;;;;;;;;;;;20.03;50.52;100426.22;5054602;28;3813;-77
2023/06/21 04:31:42;;;;;;;;;;;;;;;19.89;50.36;100419.78;5043915;28;3847;-77
2023/06/21 04:34:34;;;;;;;;;;;;;;;19.80;51.00;100416.03;5045918;28;3845;-76
2023/06/21 04:37:28;;;;;;;;;;;;;;;19.87;50.78;100414.56;5046501;28;4060;-79
2023/06/21 04:40:20;;;;;;;;;;;;;;;19.94;50.48;100416.97;5042357;28;3929;-74
2023/06/21 04:43:12;;;;;;;;;;;;;;;19.74;50.78;100420.69;5044179;28;4089;-78
2023/06/21 04:46:05;;;;;;;;;;;;;;;19.79;50.91;100431.56;5043422;28;3807;-78
2023/06/21 04:48:56;;;;;;;;;;;;;;;19.83;50.68;100426.38;5043203;28;3823;-78
2023/06/21 04:51:49;;;;;;;;;;;;;;;19.71;50.70;100421.28;5051333;28;3903;-77
2023/06/21 04:54:40;;;;;;;;;;;;;;;19.70;50.72;100416.88;5056238;28;3828;-76
2023/06/21 04:57:31;;;;;;;;;;;;;;;19.71;50.69;100418.53;5055268;28;3858;-76
2023/06/21 05:00:23;;;;;;;;;;;;;;;19.78;50.57;100410.81;5044011;28;3873;-76
2023/06/21 05:03:15;;;;;;;;;;;;;;;19.66;51.16;100415.84;5043381;28;3847;-76
2023/06/21 05:06:07;;;;;;;;;;;;;;;19.67;50.71;100415.53;5055613;28;3861;-77
2023/06/21 05:08:59;;;;;;;;;;;;;;;19.56;51.06;100407.66;5045729;28;3925;-76
2023/06/21 05:11:51;;;;;;;;;;;;;;;19.57;51.22;100412.03;5047279;28;3860;-77
2023/06/21 05:14:43;;;;;;;;;;;;;;;19.65;51.15;100412.28;5050206;28;3974;-76
2023/06/21 05:17:35;;;;;;;;;;;;;;;19.39;51.75;100416.25;5044943;28;4787;-76
2023/06/21 05:20:27;;;;;;;;;;;;;;;19.37;51.75;100415.69;5054251;28;4854;-77
2023/06/21 05:23:19;;;;;;;;;;;;;;;19.28;52.06;100418.19;5057903;28;5144;-77
2023/06/21 05:26:12;;;;;;;;;;;;;;;19.11;52.36;100412.28;5056191;28;4675;-78
2023/06/21 05:29:03;;;;;;;;;;;;;;;19.29;51.82;100417.94;5053928;28;4547;-76
2023/06/21 05:31:56;;;;;;;;;;;;;;;19.15;52.38;100411.44;5049016;28;5249;-75
2023/06/21 05:34:48;;;;;;;;;;;;;;;19.09;52.39;100417.19;5053883;28;5044;-76
2023/06/21 05:37:39;;;;;;;;;;;;;;;19.08;52.20;100407.38;5053853;28;4588;-77
2023/06/21 05:40:31;;;;;;;;;;;;;;;19.06;52.53;100404.94;5044810;28;5102;-76
2023/06/21 05:43:23;;;;;;;;;;;;;;;19.05;52.51;100408.75;5042904;28;5478;-78
2023/06/21 05:46:15;;;;;;;;;;;;;;;19.08;52.36;100410.09;5043066;28;4721;-76
2023/06/21 05:49:08;;;;;;;;;;;;;;;19.02;52.83;100401.94;5052924;28;5518;-76
2023/06/21 05:52:00;;;;;;;;;;;;;;;19.04;52.49;100404.41;5051882;28;4546;-77
2023/06/21 05:54:51;;;;;;;;;;;;;;;19.07;52.56;100401.09;5054452;28;4558;-79
2023/06/21 05:57:43;;;;;;;;;;;;;;;19.04;52.59;100402.47;5059339;28;5490;-78
2023/06/21 06:00:35;;;;;;;;;;;;;;;19.01;52.54;100400.31;5049342;28;4875;-77
2023/06/21 06:03:27;;;;;;;;;;;;;;;19.03;52.72;100409.03;5051803;28;4720;-77
2023/06/21 06:06:19;;;;;;;;;;;;;;;19.02;52.40;100406.59;5035033;28;5398;-77
2023/06/21 06:09:12;;;;;;;;;;;;;;;19.05;52.26;100406.03;5054170;28;4524;-75
2023/06/21 06:12:04;;;;;;;;;;;;;;;19.04;52.53;100407.94;5059687;28;4411;-76
2023/06/21 06:14:56;;;;;;;;;;;;;;;19.04;52.32;100399.75;5058595;28;4642;-76
2023/06/21 06:17:48;;;;;;;;;;;;;;;19.05;52.64;100395.09;5059050;28;4490;-75
2023/06/21 06:20:40;;;;;;;;;;;;;;;19.04;52.73;100399.75;5060991;28;4482;-75
2023/06/21 06:23:32;;;;;;;;;;;;;;;19.04;52.55;100393.47;5061298;28;4610;-75
2023/06/21 06:26:24;;;;;;;;;;;;;;;18.60;52.53;100324.06;5059489;28;5251;-77
2023/06/21 06:29:16;;;;;;;;;;;;;;;19.04;52.85;100396.22;5059397;28;5205;-76
2023/06/21 06:32:08;;;;;;;;;;;;;;;19.03;52.85;100389.94;5060627;28;4674;-77
2023/06/21 06:35:00;;;;;;;;;;;;;;;19.02;52.79;100382.03;5058140;28;4836;-75
2023/06/21 06:37:52;;;;;;;;;;;;;;;19.02;52.76;100384.75;5059829;28;4960;-75
2023/06/21 06:40:44;;;;;;;;;;;;;;;19.02;52.48;100391.03;5060427;28;5140;-77
2023/06/21 06:43:36;;;;;;;;;;;;;;;19.03;52.75;100389.94;5061265;28;4750;-77
2023/06/21 06:46:28;;;;;;;;;;;;;;;19.04;52.67;100386.09;5067418;28;4603;-76
2023/06/21 06:49:20;;;;;;;;;;;;;;;19.03;52.62;100386.38;5062862;28;4745;-75
2023/06/21 06:52:12;;;;;;;;;;;;;;;19.02;52.61;100379.28;5065707;28;4701;-76
2023/06/21 06:55:04;;;;;;;;;;;;;;;19.05;52.59;100378.72;5063832;28;5359;-77
2023/06/21 06:57:57;;;;;;;;;;;;;;;19.08;52.59;100377.34;5048583;28;4863;-75
2023/06/21 07:00:50;;;;;;;;;;;;;;;19.09;52.35;100371.63;5055225;28;4175;-76
2023/06/21 07:03:45;;;;;;;;;;;;;;;19.12;52.22;100372.97;5047568;28;5050;-76
2023/06/21 07:06:37;;;;;;;;;;;;;;;19.14;52.17;100370.78;5063051;28;4801;-75
2023/06/21 07:09:28;;;;;;;;;;;;;;;19.12;52.13;100368.34;5057415;28;5125;-76
2023/06/21 07:12:21;;;;;;;;;;;;;;;19.10;52.45;100375.97;5057145;28;5234;-75
2023/06/21 07:15:12;;;;;;;;;;;;;;;19.09;52.37;100371.63;5057855;28;5302;-76
2023/06/21 07:18:05;;;;;;;;;;;;;;;19.07;52.56;100368.34;5060974;28;5173;-76
2023/06/21 07:20:57;;;;;;;;;;;;;;;19.03;52.41;100368.09;5054728;28;4366;-77
2023/06/21 07:23:49;;;;;;;;;;;;;;;19.01;52.73;100369.47;5059315;28;4364;-76
2023/06/21 07:26:40;;;;;;;;;;;;;;;19.00;52.91;100367.81;5059588;28;4849;-76
2023/06/21 07:29:32;;;;;;;;;;;;;;;19.00;52.48;100370.56;5059586;28;4437;-76
2023/06/21 07:32:25;;;;;;;;;;;;;;;18.99;52.84;100366.22;5061344;28;4393;-77
2023/06/21 07:35:17;;;;;;;;;;;;;;;18.97;52.65;100361.03;5056608;28;4410;-77
2023/06/21 07:38:09;;;;;;;;;;;;;;;18.98;52.75;100354.47;5058090;28;5211;-78
2023/06/21 07:41:01;;;;;;;;;;;;;;;18.99;52.86;100352.56;5062607;28;4370;-77
2023/06/21 07:43:53;;;;;;;;;;;;;;;18.99;52.90;100355.28;5060783;28;4951;-76
2023/06/21 07:46:45;;;;;;;;;;;;;;;18.98;52.63;100357.22;5058226;28;5246;-76
2023/06/21 07:49:36;;;;;;;;;;;;;;;18.99;52.80;100355.28;5061686;28;4497;-76
2023/06/21 07:52:27;;;;;;;;;;;;;;;18.99;52.86;100352.56;5060832;28;4387;-79
2023/06/21 07:55:20;;;;;;;;;;;;;;;18.98;52.98;100349.03;5059760;28;4153;-76
2023/06/21 07:58:13;;;;;;;;;;;;;;;18.99;53.11;100336.19;5056190;28;5116;-77
2023/06/21 08:01:05;;;;;;;;;;;;;;;18.98;52.95;100331.84;5060597;28;4976;-78
2023/06/21 08:03:59;;;;;;;;;;;;;;;18.99;52.93;100328.00;5061467;28;4596;-75
2023/06/21 08:06:51;;;;;;;;;;;;;;;18.98;52.96;100327.19;5057962;28;5247;-76
2023/06/21 08:09:44;;;;;;;;;;;;;;;18.99;53.12;100325.28;5056142;28;5169;-76
2023/06/21 08:12:35;;;;;;;;;;;;;;;18.99;52.74;100323.34;5059869;28;5209;-77
2023/06/21 08:15:27;;;;;;;;;;;;;;;19.00;52.80;100315.97;5059791;28;4960;-74
2023/06/21 08:18:19;;;;;;;;;;;;;;;19.00;53.01;100310.53;5058579;28;5105;-77
2023/06/21 08:21:11;;;;;;;;;;;;;;;19.01;53.00;100312.19;5061317;28;4715;-75
2023/06/21 08:24:02;;;;;;;;;;;;;;;19.01;52.74;100299.34;5063061;28;4961;-77
2023/06/21 08:26:54;;;;;;;;;;;;;;;19.02;52.67;100300.16;5057922;28;4589;-76
2023/06/21 08:29:47;;;;;;;;;;;;;;;19.01;52.75;100298.53;5060330;28;4784;-76
2023/06/21 08:32:38;;;;;;;;;;;;;;;19.02;52.95;100292.78;5056670;28;4588;-77
2023/06/21 08:35:30;;;;;;;;;;;;;;;19.03;53.12;100308.06;5062173;28;4401;-78
2023/06/21 08:38:21;;;;;;;;;;;;;;;19.01;52.78;100285.69;5059218;28;4840;-78
2023/06/21 08:41:13;;;;;;;;;;;;;;;19.03;52.91;100288.13;5060258;28;5263;-75
2023/06/21 08:44:04;;;;;;;;;;;;;;;19.03;52.99;100288.13;5057707;28;4456;-76
2023/06/21 08:46:57;;;;;;;;;;;;;;;19.03;52.89;100288.97;5062202;28;4320;-79
2023/06/21 08:49:49;;;;;;;;;;;;;;;19.04;53.13;100290.59;5055882;28;4501;-76
2023/06/21 08:52:41;;;;;;;;;;;;;;;19.04;52.90;100281.59;5040473;28;4365;-76
2023/06/21 08:55:33;;;;;;;;;;;;;;;19.04;52.97;100287.84;5043322;28;4283;-77
2023/06/21 08:58:25;;;;;;;;;;;;;;;19.04;52.82;100285.13;5042442;28;5173;-76
2023/06/21 09:01:16;;;;;;;;;;;;;;;19.05;52.93;100294.13;5042896;28;5160;-77
2023/06/21 09:04:09;;;;;;;;;;;;;;;19.05;53.00;100294.94;5041731;28;4709;-76
2023/06/21 09:07:00;;;;;;;;;;;;;;;19.07;52.57;100297.41;5042091;28;5187;-76
2023/06/21 09:09:52;;;;;;;;;;;;;;;19.08;52.74;100296.28;5041861;28;5164;-78
2023/06/21 09:12:43;;;;;;;;;;;;;;;19.07;52.92;100289.22;5027143;28;5277;-78
2023/06/21 09:15:35;;;;;;;;;;;;;;;19.09;52.78;100283.44;5032019;28;4566;-78
2023/06/21 09:18:35;;;;;;;;;;;;;;;19.08;53.04;100285.38;5038786;28;4560;-78
2023/06/21 09:21:26;;;;;;;;;;;;;;;19.09;52.72;100276.09;5041195;28;5009;-76
2023/06/21 09:24:18;;;;;;;;;;;;;;;19.11;52.71;100281.25;5043245;28;5507;-77
2023/06/21 09:27:10;;;;;;;;;;;;;;;19.10;52.65;100277.72;5042549;28;5236;-77
2023/06/21 09:30:02;;;;;;;;;;;;;;;19.11;52.76;100262.16;5034411;28;4900;-78
2023/06/21 09:32:54;;;;;;;;;;;;;;;19.12;52.84;100267.34;5026174;28;4772;-76
2023/06/21 09:35:46;;;;;;;;;;;;;;;19.11;52.62;100257.50;5037974;28;4654;-76
2023/06/21 09:38:38;;;;;;;;;;;;;;;19.12;52.96;100258.31;5039101;28;4939;-78
2023/06/21 09:41:30;;;;;;;;;;;;;;;19.14;52.72;100264.31;5034263;28;4471;-78
2023/06/21 09:44:22;;;;;;;;;;;;;;;19.15;52.68;100258.59;5035576;28;4872;-78
2023/06/21 09:47:14;;;;;;;;;;;;;;;19.14;52.99;100259.66;5037787;28;4654;-75
2023/06/21 09:50:06;;;;;;;;;;;;;;;19.15;52.82;100258.59;5042241;28;5266;-77
2023/06/21 09:52:58;;;;;;;;;;;;;;;19.15;52.99;100250.41;5056694;28;4816;-76
2023/06/21 09:55:50;;;;;;;;;;;;;;;19.16;52.95;100252.03;5060852;28;4693;-77
2023/06/21 09:58:42;;;;;;;;;;;;;;;19.17;52.61;100242.72;5055425;28;4521;-77
2023/06/21 10:01:33;;;;;;;;;;;;;;;19.17;52.71;100244.66;5058476;28;5339;-75
2023/06/21 10:04:25;;;;;;;;;;;;;;;19.18;53.05;100240.84;5056517;28;4682;-75
2023/06/21 10:07:16;;;;;;;;;;;;;;;19.18;52.69;100225.25;5056916;28;5361;-76
2023/06/21 10:10:09;;;;;;;;;;;;;;;19.19;52.83;100220.63;5058537;28;5273;-76
2023/06/21 10:13:01;;;;;;;;;;;;;;;19.19;53.00;100229.63;5061472;28;4657;-75
2023/06/21 10:15:53;;;;;;;;;;;;;;;19.21;52.72;100223.88;5058945;28;4528;-75
2023/06/21 10:18:45;;;;;;;;;;;;;;;18.88;52.67;100168.97;5055372;28;5310;-77
2023/06/21 10:21:37;;;;;;;;;;;;;;;19.21;52.71;100215.69;5055798;28;5217;-76
2023/06/21 10:24:29;;;;;;;;;;;;;;;19.21;52.86;100213.78;5060353;28;4985;-77
2023/06/21 10:27:21;;;;;;;;;;;;;;;19.22;53.02;100218.13;5060281;28;5275;-78
2023/06/21 10:30:13;;;;;;;;;;;;;;;19.23;52.69;100214.28;5051853;28;5093;-77
2023/06/21 10:33:05;;;;;;;;;;;;;;;19.23;52.96;100218.94;5057715;28;4583;-77
2023/06/21 10:35:56;;;;;;;;;;;;;;;19.23;52.74;100213.47;5057823;28;4937;-75
2023/06/21 10:38:49;;;;;;;;;;;;;;;19.24;52.79;100204.22;5056977;28;5238;-76
2023/06/21 10:41:41;;;;;;;;;;;;;;;19.24;52.90;100202.28;5057372;28;5172;-76
2023/06/21 10:44:33;;;;;;;;;;;;;;;19.24;52.58;100193.28;5060821;28;5173;-76
2023/06/21 10:47:25;;;;;;;;;;;;;;;19.26;52.98;100191.06;5064019;22;4909;-76
2023/06/21 10:50:17;;;;;;;;;;;;;;;19.26;52.71;100191.06;5063454;28;5285;-76
2023/06/21 10:53:09;;;;;;;;;;;;;;;19.27;52.63;100184.53;5064280;28;5175;-75
2023/06/21 10:56:01;;;;;;;;;;;;;;;19.26;52.78;100185.59;5063164;28;4738;-76
2023/06/21 10:58:53;;;;;;;;;;;;;;;19.28;52.80;100183.41;5060720;28;4297;-75
2023/06/21 11:01:45;;;;;;;;;;;;;;;19.27;52.87;100179.88;5062663;28;4817;-76
2023/06/21 11:04:37;;;;;;;;;;;;;;;19.27;52.95;100171.69;5060426;28;5236;-76
2023/06/21 11:07:29;;;;;;;;;;;;;;;19.28;52.84;100173.31;5063568;28;5187;-77
2023/06/21 11:10:21;;;;;;;;;;;;;;;19.28;52.77;100156.91;5063595;28;4428;-76
2023/06/21 11:13:13;;;;;;;;;;;;;;;19.29;52.95;100158.56;5061797;28;5088;-77
2023/06/21 11:16:04;;;;;;;;;;;;;;;19.29;53.02;100149.53;5064142;28;4604;-77
2023/06/21 11:18:57;;;;;;;;;;;;;;;19.29;53.16;100153.09;5059263;28;5191;-76
2023/06/21 11:21:49;;;;;;;;;;;;;;;19.30;52.90;100137.53;5064353;28;4372;-76
2023/06/21 11:24:44;;;;;;;;;;;;;;;19.30;53.01;100134.81;5061255;28;4560;-76
2023/06/21 11:27:35;;;;;;;;;;;;;;;19.32;53.02;100134.50;5059325;28;5105;-77
2023/06/21 11:30:27;;;;;;;;;;;;;;;19.32;53.21;100134.50;5062693;28;4636;-77
2023/06/21 11:33:19;;;;;;;;;;;;;;;19.32;53.00;100123.59;5060909;28;4781;-77
2023/06/21 11:36:10;;;;;;;;;;;;;;;19.32;52.98;100123.59;5056700;28;4911;-77
2023/06/21 11:39:02;;;;;;;;;;;;;;;19.33;52.95;100122.50;5062615;28;4768;-77
2023/06/21 11:41:54;;;;;;;;;;;;;;;18.97;52.82;100077.25;5060434;28;4914;-77
2023/06/21 11:44:46;;;;;;;;;;;;;;;19.33;53.31;100120.56;5064193;28;4643;-76
2023/06/21 11:47:40;;;;;;;;;;;;;;;19.33;53.11;100123.31;5038694;28;4513;-77
2023/06/21 11:50:32;;;;;;;;;;;;;;;19.33;53.18;100127.97;5022829;28;4521;-76
2023/06/21 11:53:23;;;;;;;;;;;;;;;19.34;52.89;100135.84;5016450;28;4833;-77
2023/06/21 11:56:16;;;;;;;;;;;;;;;19.34;53.02;100144.03;5018779;28;4220;-75
2023/06/21 11:59:07;;;;;;;;;;;;;;;19.35;53.23;100139.38;5018225;28;4550;-76
2023/06/21 12:01:59;;;;;;;;;;;;;;;19.36;52.93;100160.97;5016690;28;5192;-75
2023/06/21 12:04:51;;;;;;;;;;;;;;;19.35;53.40;100156.56;5017800;28;4597;-77
2023/06/21 12:07:43;;;;;;;;;;;;;;;19.36;53.07;100160.16;5018882;28;4260;-75
2023/06/21 12:10:35;;;;;;;;;;;;;;;19.36;53.11;100157.41;5014097;28;4493;-78
2023/06/21 12:13:27;;;;;;;;;;;;;;;19.36;53.06;100180.06;5016765;28;4627;-76
2023/06/21 12:16:18;;;;;;;;;;;;;;;19.36;53.04;100188.25;5017288;28;4598;-75
2023/06/21 12:19:10;;;;;;;;;;;;;;;19.36;53.14;100184.72;5013489;28;4606;-77
2023/06/21 12:22:02;;;;;;;;;;;;;;;19.36;53.27;100185.53;5015874;28;5180;-76
2023/06/21 12:24:55;;;;;;;;;;;;;;;19.37;53.76;100197.25;5086539;22;4197;-77
2023/06/21 12:27:47;;;;;;;;;;;;;;;19.38;53.53;100199.69;5102698;28;1258;-76
2023/06/21 12:30:38;;;;;;;;;;;;;;;19.38;53.45;100196.97;5102590;28;1163;-76
2023/06/21 12:33:30;;;;;;;;;;;;;;;19.38;53.65;100202.41;5102541;28;1886;-76
2023/06/21 12:36:23;;;;;;;;;;;;;;;19.39;53.62;100203.25;5102577;28;460;-76
2023/06/21 12:39:15;;;;;;;;;;;;;;;19.39;53.67;100204.06;5102570;28;345;-78
2023/06/21 12:42:07;;;;;;;;;;;;;;;19.38;53.81;100196.16;5102489;28;378;-78
2023/06/21 12:44:58;;;;;;;;;;;;;;;19.39;53.65;100206.00;5102503;28;617;-76
2023/06/21 12:47:51;;;;;;;;;;;;;;;19.39;53.76;100198.59;5102409;28;488;-76
2023/06/21 12:50:43;;;;;;;;;;;;;;;19.39;53.74;100201.34;5102382;28;551;-79
2023/06/21 12:53:35;;;;;;;;;;;;;;;19.39;53.69;100206.78;5102262;28;1938;-75
2023/06/21 12:56:27;;;;;;;;;;;;;;;19.40;53.93;100207.59;5102308;28;314;-78
2023/06/21 12:59:19;;;;;;;;;;;;;;;19.39;53.57;100201.34;5066024;28;5438;-77
2023/06/21 13:02:10;;;;;;;;;;;;;;;19.39;53.48;100206.78;5056687;28;5358;-77
2023/06/21 13:05:02;;;;;;;;;;;;;;;19.39;53.54;100201.34;5055867;28;5097;-77
2023/06/21 13:07:53;;;;;;;;;;;;;;;19.09;53.64;100147.00;5053042;28;5310;-76
2023/06/21 13:10:46;;;;;;;;;;;;;;;19.40;53.51;100202.97;5056360;28;4876;-77
2023/06/21 13:13:38;;;;;;;;;;;;;;;19.40;53.64;100207.59;5056241;22;4895;-78
2023/06/21 13:16:30;;;;;;;;;;;;;;;19.40;53.45;100207.59;5035875;28;4862;-75
2023/06/21 13:19:25;;;;;;;;;;;;;;;19.40;53.59;100211.16;5035639;28;4822;-75
2023/06/21 13:22:17;;;;;;;;;;;;;;;19.40;53.85;100205.69;5037509;28;5233;-75
2023/06/21 13:25:09;;;;;;;;;;;;;;;19.40;54.06;100200.22;5038688;28;5241;-78
2023/06/21 13:28:01;;;;;;;;;;;;;;;19.41;53.76;100201.03;5038137;28;5186;-75
2023/06/21 13:30:53;;;;;;;;;;;;;;;19.40;53.68;100193.97;5037039;28;5004;-75
2023/06/21 13:33:45;;;;;;;;;;;;;;;19.39;53.58;100190.41;5038265;28;5137;-76
2023/06/21 13:36:36;;;;;;;;;;;;;;;19.40;53.71;100192.03;5037071;28;4385;-77
2023/06/21 13:39:28;;;;;;;;;;;;;;;19.40;53.82;100193.97;5037339;28;4733;-76
2023/06/21 13:42:20;;;;;;;;;;;;;;;19.39;53.96;100198.59;5039614;28;4845;-77
2023/06/21 13:45:12;;;;;;;;;;;;;;;19.39;53.84;100193.16;5038004;28;4551;-78
2023/06/21 13:48:04;;;;;;;;;;;;;;;19.39;53.62;100190.41;5036963;28;4851;-75
2023/06/21 13:50:56;;;;;;;;;;;;;;;19.40;53.87;100191.22;5039363;28;5155;-76
2023/06/21 13:53:48;;;;;;;;;;;;;;;19.28;63.31;100195.16;5035303;28;5270;-75
2023/06/21 13:56:40;;;;;;;;;;;;;;;19.36;60.57;100195.63;5036448;28;4645;-75
2023/06/21 13:59:35;;;;;;;;;;;;;;;19.36;58.92;100192.91;5033131;28;4878;-76
2023/06/21 14:02:27;;;;;;;;;;;;;;;19.37;58.22;100192.59;5078357;22;4797;-76
2023/06/21 14:05:19;;;;;;;;;;;;;;;19.37;57.87;100195.34;5065846;28;4538;-77
2023/06/21 14:08:11;;;;;;;;;;;;;;;19.39;57.43;100198.59;5067826;28;4463;-76
2023/06/21 14:11:03;;;;;;;;;;;;;;;19.40;56.98;100196.69;5047557;28;4729;-75
2023/06/21 14:13:55;;;;;;;;;;;;;;;19.39;56.76;100192.34;5039832;28;4349;-75
2023/06/21 14:16:47;;;;;;;;;;;;;;;19.40;56.36;100193.97;5037620;28;5226;-74
2023/06/21 14:19:40;;;;;;;;;;;;;;;19.40;56.20;100193.97;5041491;28;5370;-75
2023/06/21 14:22:32;;;;;;;;;;;;;;;19.39;55.97;100195.88;5041792;28;4589;-75
2023/06/21 14:25:24;;;;;;;;;;;;;;;19.40;55.88;100196.69;5040165;28;4974;-76
2023/06/21 14:28:16;;;;;;;;;;;;;;;19.40;55.60;100193.97;5039915;28;5257;-76
2023/06/21 14:31:07;;;;;;;;;;;;;;;19.39;55.51;100195.06;5040244;28;4957;-77
2023/06/21 14:33:59;;;;;;;;;;;;;;;19.39;55.66;100198.59;5037662;28;4911;-76
2023/06/21 14:36:51;;;;;;;;;;;;;;;19.39;55.49;100186.88;5039170;28;5164;-76
2023/06/21 14:39:43;;;;;;;;;;;;;;;19.39;55.13;100189.59;5038365;28;5211;-76
2023/06/21 14:42:35;;;;;;;;;;;;;;;19.39;55.11;100187.69;5038269;28;4707;-75
2023/06/21 14:45:27;;;;;;;;;;;;;;;19.38;55.21;100183.31;5034918;28;5591;-75
2023/06/21 14:48:19;;;;;;;;;;;;;;;19.38;55.11;100183.31;5030761;28;5509;-77
2023/06/21 14:51:14;;;;;;;;;;;;;;;19.37;54.96;100184.41;5034870;28;5299;-77
2023/06/21 14:54:06;;;;;;;;;;;;;;;19.39;55.03;100184.16;5027227;28;4789;-77
2023/06/21 14:56:58;;;;;;;;;;;;;;;19.27;70.84;100185.34;5032787;28;4573;-78